Aeroporto :
LOGIN :

Iscrizione | Disclaimer

   EN    FR    IT 

 










Sommario :    VFR   VFR Marginale   IFR   IFR Intensivo   IFR Molto Intensivo
Visibilità : 
Base nubi : 
>= 8 km
>= 3000ft
5 / 8 km
1000 / 3000 ft
1500m / 5 km
500 / 1000 ft
800 / 1500m
200 / 500 ft
< 800m
< 200 ft
Simboli :   Temporali  Nebbia  Neve Forte  Precipitazioni Forti  Vento > 20 kt
SIGMETs :   Varie  Temporali  Ghiacco  Turbolenza  Onda orograficha  Ceneri Vulcaniche






- Altitudine del aeroporto : 755 ft
- Codice IATA : KSC


LZKZ - Kosice

ULTIMO METAR :
  • 152230Z 24004KT 0600 R01/0750N FG OVC001 03/02 Q1016

METARs OBSOLETI :
  • 152200Z 25005KT 0600 R01/0750N FG OVC001 03/03 Q1016
  • 152130Z 22004KT 190V250 0450 R01/1200N FG OVC001 03/03 Q1016
  • 152106Z 23004KT 0600 R01/1700D FG OVC001 03/03 Q1016
  • 152030Z VRB01KT 2800 BR OVC003 03/03 Q1016
  • 152000Z 23005KT 3500 BR OVC003 04/03 Q1016

TAF AMD TAF LZKZ
Valido dal 15 a 21 ore il 16 a 18 ore UTC


152132Z 1521/1618 26005KT 1200 BR SCT002 BKN004
TEMPO 1521/1609 0300 FG OVC001
PROB40
TEMPO 1602/1608 0100 FZFG
BECMG 1609/1611 22005KT 3000 BR SCT005 BKN012
BECMG 1612/1614 6000 BKN023



MetMap, La meteo Aeronautica in un colpo d'occhio ! - Copyright ORBIFLY Dicembre 2007 - Disclaimer

ORBIFLY MET'MAP TEAM :

Programmazione e sviluppo : Alexandra Zaïnal
Concezione : Baudouin d'Aumeries
Aiuto per la programmazione : Marc-Olivier Méhu
Supporto tecnico e logistico : Manuel Goepfert
Aiuto per la traduzione : Arnaldo La Scala

Contatto : metmap@orbifly.com




FONTI E CREDITI :

   NOAA